Time;durP1;ratioP1;P1;durP2;ratioP2;P2;SDS_P1;SDS_P2;PMS_P1;PMS_P2;Temp;Humidity;BMP_temperature;BMP_pressure;BME280_temperature;BME280_humidity;BME280_pressure;Samples;Min_cycle;Max_cycle;Signal;HPM_P1;HPM_P2
2022/08/29 00:02:13;;;;;;;5.93;2.60;;;16.80;99.90;;;;;;5133440;28;20082;-61
2022/08/29 00:04:39;;;;;;;7.80;3.05;;;16.80;99.90;;;;;;5132537;28;20079;-62
2022/08/29 00:07:06;;;;;;;8.32;2.92;;;16.90;99.90;;;;;;5121129;27;20125;-62
2022/08/29 00:09:33;;;;;;;11.57;3.30;;;16.80;99.90;;;;;;5153708;27;20042;-62
2022/08/29 00:12:00;;;;;;;12.45;3.53;;;16.80;99.90;;;;;;5153150;27;20114;-62
2022/08/29 00:14:27;;;;;;;6.75;2.80;;;16.80;99.90;;;;;;5154097;27;20402;-62
2022/08/29 00:16:54;;;;;;;6.80;2.92;;;16.80;99.90;;;;;;5153147;27;20383;-62
2022/08/29 00:19:23;;;;;;;13.05;3.38;;;16.80;99.90;;;;;;5153637;27;20051;-62
2022/08/29 00:21:50;;;;;;;8.32;3.55;;;16.80;99.90;;;;;;5156828;27;20042;-62
2022/08/29 00:24:17;;;;;;;6.45;2.92;;;16.90;99.90;;;;;;5157328;27;20047;-63
2022/08/29 00:26:43;;;;;;;7.07;3.10;;;16.90;99.90;;;;;;5138508;27;20115;-62
2022/08/29 00:29:10;;;;;;;7.78;2.63;;;16.90;99.90;;;;;;5157642;27;20095;-61
2022/08/29 00:31:37;;;;;;;9.50;3.40;;;16.90;99.90;;;;;;5138883;27;20096;-62
2022/08/29 00:34:04;;;;;;;8.40;3.03;;;16.90;99.90;;;;;;5138265;27;20165;-62
2022/08/29 00:36:33;;;;;;;5.07;2.97;;;16.80;99.90;;;;;;5138135;27;20043;-63
2022/08/29 00:38:59;;;;;;;9.00;3.22;;;16.80;99.90;;;;;;5156391;27;20450;-62
2022/08/29 00:41:26;;;;;;;8.32;2.88;;;16.80;99.90;;;;;;5157339;27;20127;-62
2022/08/29 00:43:53;;;;;;;6.13;2.60;;;16.80;99.90;;;;;;5138951;27;20409;-62
2022/08/29 00:46:45;;;;;;;6.63;3.00;;;16.80;99.90;;;;;;5137687;27;20054;-62
2022/08/29 00:49:18;;;;;;;5.82;2.92;;;16.80;99.90;;;;;;5157411;27;20434;-62
2022/08/29 00:51:47;;;;;;;7.00;2.95;;;16.80;99.90;;;;;;5151252;27;20092;-64
2022/08/29 00:54:14;;;;;;;8.77;3.33;;;16.80;99.90;;;;;;5135903;27;20059;-63
2022/08/29 00:56:43;;;;;;;6.90;2.90;;;16.80;99.90;;;;;;5117797;27;20079;-62
2022/08/29 00:59:15;;;;;;;7.18;2.60;;;16.80;99.90;;;;;;5117513;27;20135;-62
2022/08/29 01:01:41;;;;;;;12.20;2.80;;;16.90;99.90;;;;;;5117454;27;20130;-63
2022/08/29 01:04:09;;;;;;;12.50;2.95;;;16.90;99.90;;;;;;5136158;27;20414;-62
2022/08/29 01:06:37;;;;;;;8.43;2.78;;;16.90;99.90;;;;;;5143743;27;20038;-62
2022/08/29 01:09:07;;;;;;;9.02;2.63;;;16.90;99.90;;;;;;5137677;27;20095;-63
2022/08/29 01:14:20;;;;;;;5.70;2.22;;;17.00;99.90;;;;;;5155503;27;20275;-63
2022/08/29 01:16:49;;;;;;;4.78;2.13;;;16.90;99.90;;;;;;5137860;27;20134;-63
2022/08/29 01:19:27;;;;;;;5.82;2.28;;;17.00;99.90;;;;;;5137818;27;20546;-63
2022/08/29 01:21:59;;;;;;;7.47;2.60;;;17.00;99.90;;;;;;5155021;27;20100;-63
2022/08/29 01:24:35;;;;;;;6.68;3.10;;;16.90;99.90;;;;;;5137871;27;20078;-62
2022/08/29 01:27:02;;;;;;;6.13;2.50;;;17.00;99.90;;;;;;5155980;27;20103;-63
2022/08/29 01:29:29;;;;;;;5.85;3.05;;;16.90;99.90;;;;;;5137140;27;20050;-63
2022/08/29 01:31:56;;;;;;;5.68;2.83;;;16.90;99.90;;;;;;5156162;27;20095;-63
2022/08/29 01:34:23;;;;;;;5.25;2.20;;;16.90;99.90;;;;;;5137695;27;20078;-63
2022/08/29 01:36:53;;;;;;;9.63;2.78;;;16.90;99.90;;;;;;5140211;27;20072;-63
2022/08/29 01:39:23;;;;;;;5.97;2.53;;;17.00;99.90;;;;;;5117303;27;20074;-63
2022/08/29 01:41:52;;;;;;;6.55;2.38;;;16.90;99.90;;;;;;5135552;27;20043;-63
2022/08/29 01:44:21;;;;;;;6.18;2.30;;;16.90;99.90;;;;;;5134779;27;20047;-63
2022/08/29 01:46:50;;;;;;;4.95;2.30;;;16.90;99.90;;;;;;5134866;27;20483;-61
2022/08/29 01:49:19;;;;;;;6.95;2.33;;;16.90;99.90;;;;;;5134410;27;20579;-62
2022/08/29 01:51:46;;;;;;;7.88;2.20;;;16.90;99.90;;;;;;5146008;27;20099;-63
2022/08/29 01:54:14;;;;;;;5.28;2.70;;;16.90;99.90;;;;;;5137623;27;20485;-62
2022/08/29 01:56:43;;;;;;;6.18;2.33;;;16.90;99.90;;;;;;5152885;27;20542;-62
2022/08/29 01:59:15;;;;;;;7.53;2.20;;;16.90;99.90;;;;;;5155631;27;20099;-63
2022/08/29 02:01:47;;;;;;;5.18;2.08;;;16.90;99.90;;;;;;5137251;27;20051;-63
2022/08/29 02:04:14;;;;;;;6.13;2.47;;;16.90;99.90;;;;;;5155092;27;20055;-62
2022/08/29 02:06:41;;;;;;;5.32;1.90;;;16.90;99.90;;;;;;5127778;27;20499;-63
2022/08/29 02:09:08;;;;;;;7.35;2.35;;;16.90;99.90;;;;;;5116030;27;20133;-64
2022/08/29 02:11:35;;;;;;;7.72;2.17;;;16.90;99.90;;;;;;5115941;27;20547;-63
2022/08/29 02:14:04;;;;;;;10.55;2.30;;;17.00;99.90;;;;;;5134341;27;20051;-62
2022/08/29 02:16:32;;;;;;;7.65;2.35;;;17.00;99.90;;;;;;5115381;27;20062;-63
2022/08/29 02:18:59;;;;;;;6.88;2.35;;;17.00;99.90;;;;;;5114500;27;20120;-63
2022/08/29 02:21:28;;;;;;;11.45;3.17;;;17.00;99.90;;;;;;5115896;27;20087;-63
2022/08/29 02:23:57;;;;;;;8.32;2.35;;;17.00;99.90;;;;;;5134503;27;20043;-63
2022/08/29 02:26:24;;;;;;;8.60;2.38;;;16.90;99.90;;;;;;5115487;27;20142;-62
2022/08/29 02:28:51;;;;;;;7.60;2.50;;;17.00;99.90;;;;;;5116434;27;20539;-63
2022/08/29 02:31:18;;;;;;;6.82;2.75;;;17.00;99.90;;;;;;5134159;27;20134;-63
2022/08/29 02:33:47;;;;;;;9.95;3.03;;;16.90;99.90;;;;;;5133654;27;20100;-64
2022/08/29 02:36:14;;;;;;;9.40;2.80;;;16.90;99.90;;;;;;5133171;27;20086;-63
2022/08/29 02:38:41;;;;;;;7.90;2.78;;;17.00;99.90;;;;;;5115153;27;20047;-63
2022/08/29 02:41:08;;;;;;;7.13;2.55;;;16.90;99.90;;;;;;5116114;27;20183;-62
2022/08/29 02:43:35;;;;;;;6.90;2.70;;;16.90;99.90;;;;;;5115781;27;20055;-62
2022/08/29 02:46:02;;;;;;;5.38;2.28;;;16.90;99.90;;;;;;5114459;27;20100;-63
2022/08/29 02:48:28;;;;;;;14.85;3.50;;;16.80;99.90;;;;;;5133941;27;20043;-63
2022/08/29 02:50:58;;;;;;;8.27;2.90;;;16.80;99.90;;;;;;5137226;27;20561;-62
2022/08/29 02:53:29;;;;;;;10.65;3.33;;;16.80;99.90;;;;;;5134282;27;20052;-62
2022/08/29 02:55:57;;;;;;;7.50;2.55;;;16.80;99.90;;;;;;5116005;27;20072;-62
2022/08/29 02:58:24;;;;;;;8.73;2.72;;;16.80;99.90;;;;;;5132271;27;20085;-63
2022/08/29 03:00:52;;;;;;;8.77;2.97;;;16.90;99.90;;;;;;5115148;27;20062;-62
2022/08/29 03:03:18;;;;;;;7.00;2.42;;;16.80;99.90;;;;;;5133750;27;20051;-62
2022/08/29 03:05:46;;;;;;;10.70;3.15;;;16.80;99.90;;;;;;5115755;27;20513;-63
2022/08/29 03:08:14;;;;;;;5.78;2.60;;;16.80;99.90;;;;;;5132477;27;20050;-62
2022/08/29 03:10:42;;;;;;;9.30;2.80;;;16.80;99.90;;;;;;5133889;27;20050;-63
2022/08/29 03:13:10;;;;;;;7.32;2.85;;;16.80;99.90;;;;;;5133282;27;20111;-63
2022/08/29 03:15:37;;;;;;;12.55;2.72;;;16.80;99.90;;;;;;5115114;28;20470;-62
2022/08/29 03:18:04;;;;;;;6.50;2.67;;;16.80;99.90;;;;;;5133674;28;20051;-62
2022/08/29 03:20:34;;;;;;;6.68;2.28;;;16.80;99.90;;;;;;5114451;28;20055;-62
2022/08/29 03:23:01;;;;;;;7.53;2.90;;;16.80;99.90;;;;;;5115060;27;20043;-63
2022/08/29 03:25:30;;;;;;;9.50;2.60;;;16.80;99.90;;;;;;5133806;28;20520;-63
2022/08/29 03:27:58;;;;;;;7.32;2.75;;;16.70;99.90;;;;;;5132828;28;20107;-62
2022/08/29 03:30:26;;;;;;;4.97;2.05;;;16.80;99.90;;;;;;5115649;28;20059;-63
2022/08/29 03:32:53;;;;;;;8.18;2.42;;;16.80;99.90;;;;;;5133711;28;20098;-63
2022/08/29 03:35:21;;;;;;;9.35;2.55;;;16.80;99.90;;;;;;5114640;28;20051;-62
2022/08/29 03:37:48;;;;;;;6.43;2.40;;;16.80;99.90;;;;;;5114489;28;20096;-62
2022/08/29 03:40:15;;;;;;;9.75;2.72;;;16.80;99.90;;;;;;5114583;28;20055;-62
2022/08/29 03:42:43;;;;;;;4.88;2.00;;;16.80;99.90;;;;;;5114749;28;20112;-62
2022/08/29 03:45:13;;;;;;;8.88;2.35;;;16.80;99.90;;;;;;5133392;28;20497;-63
2022/08/29 03:47:40;;;;;;;5.65;2.30;;;16.80;99.90;;;;;;5115016;28;20407;-62
2022/08/29 03:50:08;;;;;;;8.13;2.58;;;16.80;99.90;;;;;;5113445;28;20082;-62
2022/08/29 03:52:35;;;;;;;5.10;2.42;;;16.80;99.90;;;;;;5132599;27;20047;-63
2022/08/29 03:55:03;;;;;;;10.10;2.60;;;16.80;99.90;;;;;;5133236;27;20047;-63
2022/08/29 03:57:31;;;;;;;4.88;1.80;;;16.80;99.90;;;;;;5136409;27;20050;-63
2022/08/29 04:00:00;;;;;;;13.70;2.53;;;16.80;99.90;;;;;;5137127;27;20051;-62
2022/08/29 04:02:27;;;;;;;10.38;3.05;;;16.80;99.90;;;;;;5136219;27;20059;-62
2022/08/29 04:05:09;;;;;;;8.10;2.50;;;16.70;99.90;;;;;;5135897;27;20119;-62
2022/08/29 04:07:45;;;;;;;7.53;2.53;;;16.80;99.90;;;;;;5138138;27;20283;-63
2022/08/29 04:10:16;;;;;;;7.03;2.40;;;16.70;99.90;;;;;;5135889;27;20127;-62
2022/08/29 04:12:43;;;;;;;9.95;2.20;;;16.70;99.90;;;;;;5135778;27;20452;-63
2022/08/29 04:15:12;;;;;;;6.45;2.10;;;16.60;99.90;;;;;;5118510;27;20453;-63
2022/08/29 04:17:40;;;;;;;7.47;2.42;;;16.60;99.90;;;;;;5135877;27;20403;-64
2022/08/29 04:20:08;;;;;;;6.43;2.50;;;16.60;99.90;;;;;;5118192;27;20059;-63
2022/08/29 04:22:36;;;;;;;4.90;2.03;;;16.60;99.90;;;;;;5117902;27;20055;-64
2022/08/29 04:25:06;;;;;;;7.60;2.65;;;16.50;99.90;;;;;;5135611;27;20054;-64
2022/08/29 04:27:35;;;;;;;9.32;2.85;;;16.50;99.90;;;;;;5138640;27;20498;-63
2022/08/29 04:30:03;;;;;;;6.90;1.98;;;16.50;99.90;;;;;;5156426;27;20066;-63
2022/08/29 04:32:31;;;;;;;8.30;2.70;;;16.50;99.90;;;;;;5156532;27;20043;-63
2022/08/29 04:34:59;;;;;;;5.03;2.67;;;16.50;99.90;;;;;;5138185;27;20047;-63
2022/08/29 04:37:26;;;;;;;7.25;2.58;;;16.50;99.90;;;;;;5154992;27;20447;-63
2022/08/29 04:39:53;;;;;;;7.57;2.50;;;16.50;99.90;;;;;;5156878;27;20054;-63
2022/08/29 04:42:20;;;;;;;6.90;2.17;;;16.50;99.90;;;;;;5157070;27;20043;-62
2022/08/29 04:44:47;;;;;;;10.85;2.50;;;16.50;99.90;;;;;;5156629;27;20051;-63
2022/08/29 04:47:14;;;;;;;8.93;2.60;;;16.50;99.90;;;;;;5156102;27;20082;-63
2022/08/29 04:49:43;;;;;;;10.27;2.85;;;16.50;99.90;;;;;;5156280;27;20055;-63
2022/08/29 04:52:12;;;;;;;8.45;2.78;;;16.50;99.90;;;;;;5155397;27;20099;-64
2022/08/29 04:54:39;;;;;;;5.03;2.40;;;16.50;99.90;;;;;;5138269;27;20065;-62
2022/08/29 04:57:06;;;;;;;8.23;2.42;;;16.60;99.90;;;;;;5156922;27;20121;-63
2022/08/29 04:59:33;;;;;;;4.55;2.17;;;16.60;99.90;;;;;;5155899;27;20042;-62
2022/08/29 05:02:00;;;;;;;6.97;2.30;;;16.60;99.90;;;;;;5138519;27;20046;-62
2022/08/29 05:04:27;;;;;;;8.70;2.75;;;16.60;99.90;;;;;;5137653;27;20506;-61
2022/08/29 05:06:55;;;;;;;4.40;2.20;;;16.70;99.90;;;;;;5137218;27;20072;-61
2022/08/29 05:09:22;;;;;;;6.82;2.20;;;16.70;99.90;;;;;;5117624;27;20375;-62
2022/08/29 05:11:49;;;;;;;10.35;2.90;;;16.80;99.90;;;;;;5148498;27;20173;-62
2022/08/29 05:14:16;;;;;;;11.45;2.55;;;16.90;99.90;;;;;;5148910;27;20063;-62
2022/08/29 05:16:42;;;;;;;10.68;2.60;;;16.90;99.90;;;;;;5133152;27;20100;-62
2022/08/29 05:19:09;;;;;;;11.45;2.45;;;17.00;99.90;;;;;;5145921;27;20046;-62
2022/08/29 05:21:38;;;;;;;3.80;1.85;;;17.00;99.90;;;;;;5150387;27;20043;-62
2022/08/29 05:24:10;;;;;;;3.95;2.15;;;17.00;99.90;;;;;;5130026;27;20078;-62
2022/08/29 05:26:39;;;;;;;5.25;2.28;;;17.10;99.90;;;;;;5141185;27;20075;-61
2022/08/29 05:29:07;;;;;;;10.38;2.88;;;17.20;99.90;;;;;;5146614;27;20111;-62
2022/08/29 05:31:39;;;;;;;4.22;2.05;;;17.30;99.90;;;;;;5149460;27;20092;-63
2022/08/29 05:34:06;;;;;;;7.28;2.35;;;17.30;99.90;;;;;;5145536;27;20043;-62
2022/08/29 05:36:33;;;;;;;5.57;2.10;;;17.30;99.90;;;;;;5148674;27;20042;-63
2022/08/29 05:39:00;;;;;;;5.22;2.22;;;17.30;99.90;;;;;;5143349;27;20486;-62
2022/08/29 05:41:28;;;;;;;7.78;2.00;;;17.30;99.90;;;;;;5122926;27;20046;-63
2022/08/29 05:43:57;;;;;;;5.22;2.17;;;17.30;99.90;;;;;;5143936;27;20058;-62
2022/08/29 05:46:23;;;;;;;7.82;2.30;;;17.40;99.90;;;;;;5133758;27;20043;-62
2022/08/29 05:48:50;;;;;;;3.78;1.88;;;17.40;99.90;;;;;;5147281;27;20070;-63
2022/08/29 05:51:19;;;;;;;5.40;2.28;;;17.40;99.90;;;;;;5148842;27;20083;-62
2022/08/29 05:53:46;;;;;;;5.57;2.42;;;17.50;99.90;;;;;;5147033;27;20477;-63
2022/08/29 05:56:19;;;;;;;5.35;2.40;;;17.60;99.90;;;;;;5145432;27;20099;-62
2022/08/29 05:58:47;;;;;;;12.38;2.33;;;17.60;99.90;;;;;;5146095;27;20494;-62
2022/08/29 06:01:20;;;;;;;5.82;2.03;;;17.60;99.90;;;;;;5143876;27;20082;-62
2022/08/29 06:03:47;;;;;;;6.78;2.47;;;17.70;99.90;;;;;;5153874;27;20046;-62
2022/08/29 06:06:13;;;;;;;6.03;2.35;;;17.80;99.90;;;;;;5148770;27;20448;-62
2022/08/29 06:08:40;;;;;;;5.10;2.25;;;17.90;99.90;;;;;;5123740;27;20043;-61
2022/08/29 06:11:14;;;;;;;4.85;2.20;;;17.90;99.90;;;;;;5143669;27;20103;-62
2022/08/29 06:13:40;;;;;;;6.22;2.20;;;18.00;99.90;;;;;;5144025;27;20078;-63
2022/08/29 06:16:11;;;;;;;7.20;1.92;;;18.10;99.90;;;;;;5128840;27;20096;-63
2022/08/29 06:18:38;;;;;;;;;;;18.20;99.90;;;;;;5130387;27;20450;-63
2022/08/29 06:21:05;;;;;;;7.45;2.40;;;18.30;99.90;;;;;;5144123;27;20010;-63
2022/08/29 06:23:32;;;;;;;6.15;2.33;;;18.40;99.90;;;;;;5147151;27;20039;-62
2022/08/29 06:25:59;;;;;;;6.38;2.33;;;18.50;99.90;;;;;;5122835;27;20510;-61
2022/08/29 06:28:26;;;;;;;6.20;2.28;;;18.70;99.90;;;;;;5148590;27;20122;-63
2022/08/29 06:30:53;;;;;;;8.20;2.40;;;18.80;99.90;;;;;;5140795;27;20456;-63
2022/08/29 06:33:22;;;;;;;6.45;2.60;;;18.90;99.90;;;;;;5143318;27;20078;-62
2022/08/29 06:35:49;;;;;;;9.13;2.60;;;19.10;99.90;;;;;;5143944;27;20397;-63
2022/08/29 06:38:15;;;;;;;10.25;3.05;;;19.30;99.90;;;;;;5143038;27;20099;-62
2022/08/29 06:40:42;;;;;;;12.60;2.92;;;19.40;99.90;;;;;;5127163;27;20515;-62
2022/08/29 06:43:09;;;;;;;6.45;2.10;;;19.60;99.90;;;;;;5147614;27;20451;-63
2022/08/29 06:45:40;;;;;;;8.82;3.17;;;19.70;99.90;;;;;;5146861;27;20581;-63
2022/08/29 06:48:07;;;;;;;10.50;2.72;;;19.80;99.90;;;;;;5144547;27;20051;-62
2022/08/29 06:50:37;;;;;;;4.40;2.13;;;19.90;99.90;;;;;;5127471;27;20123;-63
2022/08/29 06:53:04;;;;;;;9.30;2.73;;;20.00;99.90;;;;;;5146007;27;20047;-63
2022/08/29 06:55:31;;;;;;;9.00;3.10;;;20.10;99.90;;;;;;5127585;27;20046;-62
2022/08/29 06:57:58;;;;;;;11.45;3.00;;;20.20;99.90;;;;;;5146220;27;20046;-63
2022/08/29 07:00:24;;;;;;;8.32;2.20;;;20.60;99.90;;;;;;5116035;27;20099;-63
2022/08/29 07:02:52;;;;;;;7.00;2.67;;;20.90;99.90;;;;;;5145901;27;20065;-63
2022/08/29 07:05:19;;;;;;;16.92;3.60;;;21.40;99.90;;;;;;5140029;27;20046;-63
2022/08/29 07:07:47;;;;;;;10.85;3.15;;;21.60;99.90;;;;;;5145704;27;20537;-63
2022/08/29 07:10:14;;;;;;;13.25;3.28;;;21.70;99.90;;;;;;5113697;27;20101;-63
2022/08/29 07:12:41;;;;;;;8.65;2.92;;;21.60;99.90;;;;;;5115017;27;20074;-63
2022/08/29 07:15:09;;;;;;;12.57;3.33;;;21.30;99.90;;;;;;5133406;27;20113;-63
2022/08/29 07:17:36;;;;;;;11.20;3.30;;;21.10;99.90;;;;;;5115115;28;20047;-62
2022/08/29 07:20:04;;;;;;;9.98;3.03;;;21.00;99.90;;;;;;5132907;28;20094;-64
2022/08/29 07:22:33;;;;;;;8.18;2.80;;;20.90;99.90;;;;;;5134005;28;20050;-63
2022/08/29 07:25:01;;;;;;;10.30;3.00;;;20.80;99.90;;;;;;5115019;28;20124;-63
2022/08/29 07:27:28;;;;;;;12.75;3.47;;;20.70;99.90;;;;;;5132968;28;20120;-63
2022/08/29 07:29:55;;;;;;;10.02;2.88;;;20.60;99.90;;;;;;5136071;27;20097;-63
2022/08/29 07:32:22;;;;;;;8.30;2.85;;;20.50;99.90;;;;;;5119570;27;20111;-64
2022/08/29 07:34:49;;;;;;;8.80;3.17;;;20.50;99.90;;;;;;5118736;27;20047;-63
2022/08/29 07:37:16;;;;;;;11.00;3.17;;;20.60;99.90;;;;;;5118325;27;20472;-63
2022/08/29 07:39:43;;;;;;;17.95;3.05;;;20.70;99.90;;;;;;5137372;27;20047;-64
2022/08/29 07:42:11;;;;;;;9.05;2.85;;;20.70;99.90;;;;;;5118863;27;20096;-63
2022/08/29 07:44:38;;;;;;;8.52;2.25;;;20.80;99.90;;;;;;5119247;27;20400;-63
2022/08/29 07:47:05;;;;;;;10.15;2.72;;;20.90;99.90;;;;;;5137301;27;20070;-62
2022/08/29 07:49:32;;;;;;;8.90;2.92;;;21.00;99.90;;;;;;5136700;27;20051;-63
2022/08/29 07:52:00;;;;;;;9.98;3.65;;;21.10;99.90;;;;;;5137713;27;20055;-64
2022/08/29 07:54:27;;;;;;;12.55;2.72;;;21.30;99.90;;;;;;5137230;27;20051;-63
2022/08/29 07:56:54;;;;;;;12.50;3.35;;;21.50;99.90;;;;;;5118588;27;20495;-63
2022/08/29 07:59:22;;;;;;;6.28;2.85;;;21.90;99.90;;;;;;5136503;27;20403;-63
2022/08/29 08:01:49;;;;;;;6.25;2.45;;;22.30;99.90;;;;;;5118465;27;20047;-63
2022/08/29 08:04:16;;;;;;;6.03;2.80;;;22.70;99.90;;;;;;5118512;27;20502;-64
2022/08/29 08:06:43;;;;;;;12.27;3.30;;;23.40;99.90;;;;;;5137083;27;20111;-64
2022/08/29 08:09:12;;;;;;;7.03;2.45;;;23.70;99.90;;;;;;5136597;27;20490;-64
2022/08/29 08:11:40;;;;;;;9.85;3.40;;;23.70;99.90;;;;;;5137435;27;20126;-63
2022/08/29 08:14:07;;;;;;;6.45;2.70;;;23.60;99.90;;;;;;5118411;27;20510;-64
2022/08/29 08:16:35;;;;;;;8.50;3.08;;;23.50;99.90;;;;;;5136533;27;20051;-63
2022/08/29 08:19:03;;;;;;;12.98;3.90;;;23.40;99.90;;;;;;5118519;27;20043;-64
2022/08/29 08:21:30;;;;;;;11.57;3.85;;;23.20;99.90;;;;;;5118122;27;20051;-63
2022/08/29 08:23:57;;;;;;;11.63;2.80;;;23.20;99.90;;;;;;5136568;27;20190;-64
2022/08/29 08:26:24;;;;;;;9.70;2.90;;;23.20;99.90;;;;;;5136712;27;20054;-64
2022/08/29 08:28:52;;;;;;;9.90;3.45;;;23.20;99.90;;;;;;5118535;27;20046;-63
2022/08/29 08:31:19;;;;;;;8.98;2.78;;;23.50;99.90;;;;;;5117791;27;20057;-63
2022/08/29 08:33:48;;;;;;;9.88;2.83;;;23.80;99.90;;;;;;5136880;27;20130;-63
2022/08/29 08:36:18;;;;;;;5.88;2.55;;;24.10;99.90;;;;;;5118132;27;20055;-63
2022/08/29 08:38:46;;;;;;;7.85;3.35;;;24.40;99.90;;;;;;5136026;27;20074;-63
2022/08/29 08:41:42;;;;;;;8.52;3.25;;;24.40;99.90;;;;;;5117441;27;20055;-64
2022/08/29 08:44:27;;;;;;;12.98;4.00;;;24.30;99.90;;;;;;5104668;27;20135;-63
2022/08/29 08:46:57;;;;;;;8.73;3.33;;;24.40;99.90;;;;;;5118319;27;20051;-63
2022/08/29 08:49:42;;;;;;;9.43;3.22;;;24.50;99.90;;;;;;5117813;27;20058;-64
2022/08/29 08:52:15;;;;;;;8.57;3.00;;;24.40;99.90;;;;;;5117875;27;20092;-63
2022/08/29 08:54:50;;;;;;;11.57;3.13;;;24.20;99.90;;;;;;5136586;27;20114;-64
2022/08/29 08:57:19;;;;;;;10.15;3.55;;;24.30;99.90;;;;;;5136075;27;20050;-64
2022/08/29 08:59:49;;;;;;;11.00;3.53;;;24.40;99.90;;;;;;5134259;27;20426;-64
2022/08/29 09:02:28;;;;;;;15.07;3.03;;;24.40;99.90;;;;;;5135236;27;20122;-64
2022/08/29 09:05:06;;;;;;;11.75;3.72;;;24.50;99.90;;;;;;5135745;27;20452;-64
2022/08/29 09:07:47;;;;;;;8.23;3.00;;;24.40;99.90;;;;;;5117233;27;20471;-64
2022/08/29 09:10:23;;;;;;;10.02;3.88;;;24.80;99.90;;;;;;5135851;27;20134;-63
2022/08/29 09:13:00;;;;;;;9.57;2.85;;;24.80;99.90;;;;;;5135499;27;20062;-64
2022/08/29 09:15:34;;;;;;;8.88;3.60;;;25.30;99.90;;;;;;5117780;27;20157;-63
2022/08/29 09:18:04;;;;;;;8.63;3.55;;;25.60;99.50;;;;;;5135904;27;20763;-65
2022/08/29 09:20:35;;;;;;;9.32;3.60;;;25.80;99.50;;;;;;5134015;27;20304;-63
2022/08/29 09:23:05;;;;;;;8.05;3.40;;;27.00;97.70;;;;;;5139962;27;20099;-64
2022/08/29 09:25:35;;;;;;;;;;;28.30;96.60;;;;;;5126637;27;20082;-64
2022/08/29 09:28:04;;;;;;;7.82;2.97;;;29.50;93.40;;;;;;5134963;27;19991;-65
2022/08/29 09:30:33;;;;;;;7.50;4.05;;;29.70;92.80;;;;;;5148564;27;20078;-65
2022/08/29 09:33:02;;;;;;;7.05;3.03;;;28.90;92.20;;;;;;5135406;27;20055;-64
2022/08/29 09:35:35;;;;;;;7.20;2.70;;;27.60;92.50;;;;;;5116788;27;20074;-65
2022/08/29 09:38:05;;;;;;;7.22;2.80;;;27.00;93.20;;;;;;5142397;27;20052;-64
2022/08/29 09:40:43;;;;;;;;;;;26.40;93.90;;;;;;5153013;27;20045;-64
2022/08/29 09:43:18;;;;;;;9.73;3.25;;;25.50;93.60;;;;;;5152674;27;20331;-64
2022/08/29 09:46:13;;;;;;;7.57;3.30;;;25.30;95.00;;;;;;5135335;27;20089;-63
2022/08/29 09:48:42;;;;;;;7.75;2.50;;;25.10;94.70;;;;;;5153681;27;20402;-64
2022/08/29 09:51:15;;;;;;;6.67;2.60;;;25.00;95.30;;;;;;5149033;27;20074;-63
2022/08/29 09:53:42;;;;;;;6.93;3.05;;;24.80;95.60;;;;;;5135064;27;20466;-64
2022/08/29 09:56:15;;;;;;;4.78;2.70;;;24.60;96.10;;;;;;5145917;27;20047;-63
2022/08/29 09:58:42;;;;;;;7.68;3.00;;;24.30;95.90;;;;;;5135764;27;20473;-64
2022/08/29 10:01:12;;;;;;;5.97;2.70;;;24.10;96.30;;;;;;5133242;27;20047;-63
2022/08/29 10:03:42;;;;;;;6.88;2.92;;;24.00;96.60;;;;;;5153971;27;20046;-64
2022/08/29 10:06:15;;;;;;;10.07;2.78;;;23.80;97.10;;;;;;5153821;27;20090;-64
2022/08/29 10:08:54;;;;;;;5.82;2.55;;;23.90;97.30;;;;;;5154485;27;20046;-63
2022/08/29 10:11:28;;;;;;;8.65;2.78;;;23.90;97.20;;;;;;5135213;27;20443;-64
2022/08/29 10:13:58;;;;;;;8.70;3.20;;;23.90;97.40;;;;;;5153583;27;20391;-63
2022/08/29 10:16:36;;;;;;;8.93;3.15;;;23.80;97.40;;;;;;5133900;27;20110;-63
2022/08/29 10:19:06;;;;;;;5.97;2.60;;;23.70;97.60;;;;;;5153615;27;20383;-64
2022/08/29 10:21:45;;;;;;;9.90;2.75;;;23.60;97.60;;;;;;5151366;27;20477;-63
2022/08/29 10:24:23;;;;;;;9.77;3.28;;;23.60;97.60;;;;;;5151191;27;20069;-63
2022/08/29 10:26:56;;;;;;;4.53;2.75;;;23.60;97.80;;;;;;5135256;27;20043;-63
2022/08/29 10:29:35;;;;;;;7.75;2.78;;;23.50;98.00;;;;;;5134982;27;20043;-63
2022/08/29 10:32:13;;;;;;;7.25;2.70;;;23.50;98.20;;;;;;5149405;27;20046;-64
2022/08/29 10:34:55;;;;;;;6.80;3.00;;;23.40;98.20;;;;;;5150388;27;20390;-64
2022/08/29 10:37:36;;;;;;;9.60;2.97;;;23.30;98.60;;;;;;5134351;27;20569;-64
2022/08/29 10:40:09;;;;;;;11.63;3.40;;;23.20;98.80;;;;;;5153315;27;20046;-63
2022/08/29 10:42:39;;;;;;;14.55;4.22;;;23.10;98.90;;;;;;5152612;27;20118;-63
2022/08/29 10:45:16;;;;;;;8.18;3.53;;;22.90;99.40;;;;;;5152148;27;20073;-63
2022/08/29 10:47:51;;;;;;;12.50;3.40;;;22.80;99.70;;;;;;5118212;27;20058;-64
2022/08/29 10:50:28;;;;;;;11.55;3.55;;;22.80;99.90;;;;;;5149490;27;20068;-64
2022/08/29 10:53:03;;;;;;;11.75;3.33;;;22.60;99.90;;;;;;5152820;27;20482;-63
2022/08/29 10:55:54;;;;;;;13.95;3.80;;;22.50;99.90;;;;;;5133565;27;20151;-63
2022/08/29 10:58:46;;;;;;;7.82;2.95;;;22.50;99.90;;;;;;5134109;27;20133;-63
2022/08/29 11:01:19;;;;;;;13.20;3.55;;;22.40;99.90;;;;;;5146972;27;20460;-63
2022/08/29 11:04:04;;;;;;;10.40;4.07;;;22.30;99.90;;;;;;5152016;27;20039;-63
2022/08/29 11:06:34;;;;;;;11.40;4.15;;;22.20;99.90;;;;;;5146034;27;20050;-63
2022/08/29 11:09:10;;;;;;;12.57;4.30;;;22.10;99.90;;;;;;5129300;27;20061;-62
2022/08/29 11:11:45;;;;;;;10.85;3.22;;;22.00;99.90;;;;;;5141691;27;20073;-63
2022/08/29 11:14:23;;;;;;;13.40;3.97;;;21.90;99.90;;;;;;5145598;27;20059;-62
2022/08/29 11:16:52;;;;;;;8.82;3.75;;;21.80;99.90;;;;;;5143701;27;20042;-64
2022/08/29 11:19:25;;;;;;;8.55;3.25;;;21.80;99.90;;;;;;5151240;27;20042;-63
2022/08/29 11:21:56;;;;;;;8.68;3.38;;;21.90;99.90;;;;;;5131923;27;20486;-63
2022/08/29 11:24:28;;;;;;;11.82;3.75;;;21.80;99.90;;;;;;5152941;27;20042;-63
2022/08/29 11:27:02;;;;;;;11.02;4.45;;;21.80;99.90;;;;;;5151996;27;20379;-63
2022/08/29 11:29:37;;;;;;;12.98;4.18;;;21.90;99.90;;;;;;5129852;27;20055;-62
2022/08/29 11:32:10;;;;;;;6.80;3.38;;;21.90;99.90;;;;;;5133240;27;20051;-64
2022/08/29 11:35:03;;;;;;;9.80;3.00;;;22.10;99.90;;;;;;5133633;27;20059;-62
2022/08/29 11:38:03;;;;;;;11.88;3.20;;;22.20;99.90;;;;;;5152577;27;20406;-63
2022/08/29 11:40:48;;;;;;;9.80;3.22;;;22.30;99.90;;;;;;5150976;27;20485;-63
2022/08/29 11:43:19;;;;;;;6.85;2.97;;;22.30;99.90;;;;;;5149981;27;20087;-64
2022/08/29 11:45:57;;;;;;;7.43;2.47;;;22.30;99.90;;;;;;5133774;27;20134;-63
2022/08/29 11:48:33;;;;;;;9.95;2.75;;;22.30;99.90;;;;;;5150016;27;20059;-63
2022/08/29 11:51:20;;;;;;;7.10;2.85;;;22.40;99.90;;;;;;5152221;27;20070;-64
2022/08/29 11:53:47;;;;;;;7.63;2.60;;;22.50;99.90;;;;;;5146102;27;20133;-64
2022/08/29 11:56:26;;;;;;;6.47;2.85;;;22.60;99.90;;;;;;5134169;27;20058;-64
2022/08/29 11:58:54;;;;;;;5.53;2.28;;;22.90;99.90;;;;;;5124105;27;20159;-64
2022/08/29 12:01:55;;;;;;;7.90;2.75;;;23.10;99.90;;;;;;5119786;27;20078;-63
2022/08/29 12:04:53;;;;;;;13.13;3.05;;;23.20;99.90;;;;;;5120424;27;20129;-64
2022/08/29 12:07:32;;;;;;;6.70;2.35;;;23.30;99.90;;;;;;5146627;27;20107;-62
2022/08/29 12:10:01;;;;;;;7.50;2.78;;;23.30;99.90;;;;;;5120370;27;20104;-63
2022/08/29 12:12:42;;;;;;;7.20;2.92;;;23.30;99.90;;;;;;5129029;27;20055;-63
2022/08/29 12:15:46;;;;;;;7.13;2.28;;;23.40;99.90;;;;;;5144407;27;20103;-63
2022/08/29 12:18:44;;;;;;;9.82;2.55;;;23.60;99.90;;;;;;5155198;27;20394;-63
2022/08/29 12:21:34;;;;;;;4.47;2.10;;;23.70;99.90;;;;;;5136855;27;20050;-63
2022/08/29 12:24:01;;;;;;;;;;;23.90;99.90;;;;;;5156115;27;20486;-63
2022/08/29 12:26:43;;;;;;;8.07;2.50;;;24.00;99.20;;;;;;5155818;27;19922;-63
2022/08/29 12:29:21;;;;;;;7.00;2.25;;;24.10;99.40;;;;;;5133534;27;20050;-63
2022/08/29 12:32:22;;;;;;;7.15;2.20;;;24.20;98.80;;;;;;5155501;27;20103;-63
2022/08/29 12:35:10;;;;;;;9.25;2.70;;;24.40;98.10;;;;;;5136231;27;20549;-63
2022/08/29 12:37:55;;;;;;;4.85;2.30;;;24.60;97.80;;;;;;5134927;27;20050;-63
2022/08/29 12:40:43;;;;;;;5.15;2.00;;;24.90;97.60;;;;;;5153307;27;20090;-64
2022/08/29 12:43:34;;;;;;;4.20;2.03;;;25.00;96.90;;;;;;5155661;27;20442;-64
2022/08/29 12:46:08;;;;;;;4.80;2.33;;;25.20;96.50;;;;;;5152741;27;20107;-63
2022/08/29 12:48:41;;;;;;;6.93;2.47;;;25.10;96.70;;;;;;5150486;27;20393;-63
2022/08/29 12:51:08;;;;;;;7.28;2.30;;;25.30;96.50;;;;;;5129661;27;20086;-64
2022/08/29 12:53:35;;;;;;;3.75;2.10;;;25.60;96.30;;;;;;5128929;27;20497;-64
2022/08/29 12:56:12;;;;;;;4.78;1.90;;;25.60;95.70;;;;;;5144050;27;20047;-64
2022/08/29 12:58:41;;;;;;;10.90;2.67;;;25.80;95.40;;;;;;5142089;27;20415;-63
2022/08/29 13:01:22;;;;;;;4.28;1.50;;;25.70;95.30;;;;;;5149904;27;20047;-64
2022/08/29 13:03:56;;;;;;;9.27;1.88;;;25.90;94.80;;;;;;5149261;27;20725;-63
2022/08/29 13:06:23;;;;;;;5.43;2.20;;;26.10;94.70;;;;;;5118762;27;20093;-63
2022/08/29 13:08:50;;;;;;;5.55;2.00;;;26.10;94.80;;;;;;5147476;27;20468;-63